Time;durP1;ratioP1;P1;durP2;ratioP2;P2;SDS_P1;SDS_P2;PMS_P1;PMS_P2;Temp;Humidity;BMP_temperature;BMP_pressure;BME280_temperature;BME280_humidity;BME280_pressure;Samples;Min_cycle;Max_cycle;Signal;HPM_P1;HPM_P2
2022/08/08 00:02:33;;;;;;;5.30;3.25;;;14.70;99.90;;;;;;6143937;22;20349;-88
2022/08/08 00:05:11;;;;;;;7.22;2.83;;;14.70;99.90;;;;;;6144113;23;20440;-88
2022/08/08 00:08:00;;;;;;;4.70;2.92;;;14.70;99.90;;;;;;6145379;22;20014;-88
2022/08/08 00:10:51;;;;;;;6.53;2.75;;;14.70;99.90;;;;;;6144324;23;20021;-88
2022/08/08 00:13:50;;;;;;;5.88;2.53;;;14.70;99.90;;;;;;6144021;22;20013;-88
2022/08/08 00:16:23;;;;;;;5.53;2.67;;;14.60;99.90;;;;;;6144239;22;20028;-88
2022/08/08 00:18:58;;;;;;;5.20;2.88;;;14.60;99.90;;;;;;6143372;23;20519;-88
2022/08/08 00:21:30;;;;;;;5.20;2.90;;;14.50;99.90;;;;;;6143352;23;20017;-88
2022/08/08 00:23:59;;;;;;;5.18;2.85;;;14.50;99.90;;;;;;6145873;23;20089;-88
2022/08/08 00:26:35;;;;;;;4.88;2.30;;;14.50;99.90;;;;;;6146109;23;20425;-88
2022/08/08 00:29:24;;;;;;;6.97;3.15;;;14.40;99.90;;;;;;6146065;23;20361;-87
2022/08/08 00:31:55;;;;;;;5.60;3.00;;;14.30;99.90;;;;;;6143629;23;20021;-88
2022/08/08 00:37:39;;;;;;;4.90;2.53;;;14.20;99.90;;;;;;6145082;23;20100;-88
2022/08/08 00:40:28;;;;;;;4.22;2.50;;;14.20;99.90;;;;;;6146643;23;20032;-88
2022/08/08 00:43:13;;;;;;;5.97;3.05;;;14.20;99.90;;;;;;6143762;23;20519;-88
2022/08/08 00:46:17;;;;;;;5.72;2.70;;;14.20;99.90;;;;;;6145503;22;20430;-88
2022/08/08 00:48:55;;;;;;;4.82;2.50;;;14.20;99.90;;;;;;6166807;23;20013;-88
2022/08/08 00:51:44;;;;;;;6.32;2.65;;;14.10;99.90;;;;;;6145275;23;20071;-88
2022/08/08 00:54:35;;;;;;;4.40;2.72;;;14.10;99.90;;;;;;6145227;22;20071;-88
2022/08/08 00:57:18;;;;;;;4.57;2.67;;;14.80;99.90;;;;;;6145677;23;20029;-88
2022/08/08 01:00:04;;;;;;;9.05;3.20;;;14.10;99.90;;;;;;6145053;22;20177;-88
2022/08/08 01:03:07;;;;;;;6.22;3.47;;;14.10;99.90;;;;;;6143535;23;20488;-88
2022/08/08 01:06:12;;;;;;;5.55;2.97;;;14.10;99.90;;;;;;6142858;23;20023;-88
2022/08/08 01:08:57;;;;;;;;;;;14.10;99.90;;;;;;6145336;23;20072;-88
2022/08/08 01:11:44;;;;;;;5.80;3.00;;;14.10;99.90;;;;;;6145140;23;20358;-87
2022/08/08 01:14:44;;;;;;;5.65;2.90;;;14.10;99.90;;;;;;6120706;23;20056;-88
2022/08/08 01:17:18;;;;;;;6.97;3.45;;;14.00;99.90;;;;;;6146752;23;20453;-88
2022/08/08 01:20:03;;;;;;;;;;;14.00;99.90;;;;;;6146295;22;20033;-88
2022/08/08 01:22:34;;;;;;;4.80;3.13;;;14.00;99.90;;;;;;6145399;23;20419;-88
2022/08/08 01:25:25;;;;;;;7.05;3.20;;;14.00;99.90;;;;;;6170820;23;20022;-88
2022/08/08 01:28:06;;;;;;;6.18;3.40;;;13.90;99.90;;;;;;6144571;23;20453;-88
2022/08/08 01:31:18;;;;;;;5.90;3.38;;;13.90;99.90;;;;;;6120258;23;20314;-88
2022/08/08 01:34:05;;;;;;;6.28;3.20;;;13.90;99.90;;;;;;6119655;23;20017;-88
2022/08/08 01:36:59;;;;;;;7.00;3.30;;;13.90;99.90;;;;;;6144560;23;20025;-88
2022/08/08 01:39:52;;;;;;;7.65;3.67;;;13.90;99.90;;;;;;6120840;23;20070;-88
2022/08/08 01:42:49;;;;;;;5.82;3.47;;;13.80;99.90;;;;;;6145667;23;20029;-88
2022/08/08 01:45:39;;;;;;;7.50;3.45;;;13.80;99.90;;;;;;6145086;23;20071;-88
2022/08/08 01:48:07;;;;;;;6.35;3.63;;;13.80;99.90;;;;;;6146888;22;20083;-88
2022/08/08 01:51:07;;;;;;;6.10;3.25;;;13.80;99.90;;;;;;6146100;22;20024;-88
2022/08/08 01:53:55;;;;;;;5.78;3.40;;;13.80;99.90;;;;;;6144964;23;20025;-88
2022/08/08 01:56:38;;;;;;;7.22;3.60;;;13.80;99.90;;;;;;6146529;22;20021;-88
2022/08/08 01:59:28;;;;;;;7.63;3.63;;;13.80;99.90;;;;;;6147061;22;20021;-88
2022/08/08 02:02:08;;;;;;;8.07;4.03;;;13.80;99.90;;;;;;6146613;22;20498;-88
2022/08/08 02:04:39;;;;;;;5.00;3.35;;;13.70;99.90;;;;;;6146750;23;20085;-88
2022/08/08 02:07:28;;;;;;;6.60;3.30;;;13.70;99.90;;;;;;6146502;22;20092;-88
2022/08/08 02:10:21;;;;;;;4.55;2.92;;;13.70;99.90;;;;;;6146321;23;20063;-88
2022/08/08 02:12:56;;;;;;;7.38;3.10;;;13.70;99.90;;;;;;6146395;23;20036;-87
2022/08/08 02:15:24;;;;;;;4.63;3.08;;;13.80;99.90;;;;;;6144824;23;20078;-88
2022/08/08 02:18:17;;;;;;;5.85;2.63;;;13.70;99.90;;;;;;6145269;22;20018;-88
2022/08/08 02:23:56;;;;;;;6.10;3.30;;;13.70;99.90;;;;;;6146183;23;20315;-88
2022/08/08 02:26:36;;;;;;;6.22;3.20;;;13.70;99.90;;;;;;6144952;22;20168;-88
2022/08/08 02:29:20;;;;;;;5.65;2.47;;;13.70;99.90;;;;;;6144797;23;20013;-88
2022/08/08 02:32:13;;;;;;;5.10;2.70;;;13.60;99.90;;;;;;6145638;23;20084;-88
2022/08/08 02:34:54;;;;;;;4.53;2.78;;;13.60;99.90;;;;;;6120299;23;20545;-89
2022/08/08 02:37:34;;;;;;;5.50;2.88;;;13.60;99.90;;;;;;6144659;22;20484;-89
2022/08/08 02:40:18;;;;;;;6.43;3.45;;;13.60;99.90;;;;;;6146964;22;20079;-88
2022/08/08 02:43:28;;;;;;;6.05;3.72;;;13.60;99.90;;;;;;6146439;23;20021;-88
2022/08/08 02:46:25;;;;;;;4.78;3.20;;;13.50;99.90;;;;;;6118839;23;20021;-88
2022/08/08 02:49:09;;;;;;;5.40;2.55;;;13.60;99.90;;;;;;6144523;23;20022;-88
2022/08/08 02:51:57;;;;;;;6.93;3.17;;;13.50;99.90;;;;;;6144660;23;20481;-88
2022/08/08 02:54:38;;;;;;;7.68;3.97;;;13.50;99.90;;;;;;6145895;23;20018;-88
2022/08/08 02:57:46;;;;;;;4.97;2.92;;;13.50;99.90;;;;;;6146458;22;20387;-88
2022/08/08 03:00:21;;;;;;;6.53;3.85;;;13.50;99.90;;;;;;6211328;23;20428;-88
2022/08/08 03:03:02;;;;;;;5.82;3.08;;;13.50;99.90;;;;;;6211970;23;20066;-88
2022/08/08 03:05:56;;;;;;;5.47;2.92;;;13.50;99.90;;;;;;6212394;23;20410;-87
2022/08/08 03:08:52;;;;;;;4.78;2.60;;;13.50;99.90;;;;;;6238086;23;20026;-88
2022/08/08 03:11:49;;;;;;;5.30;2.72;;;13.50;99.90;;;;;;6237520;23;20062;-88
2022/08/08 03:14:41;;;;;;;5.10;2.70;;;13.50;99.90;;;;;;6187276;23;20424;-89
2022/08/08 03:17:49;;;;;;;5.50;2.72;;;13.50;99.90;;;;;;6187075;23;20027;-87
2022/08/08 03:20:15;;;;;;;5.57;2.30;;;13.50;99.90;;;;;;6179176;23;20020;-87
2022/08/08 03:22:49;;;;;;;7.07;2.38;;;13.40;99.90;;;;;;6186817;23;20018;-88
2022/08/08 03:25:17;;;;;;;4.55;2.63;;;13.40;99.90;;;;;;6212283;23;20086;-87
2022/08/08 03:28:16;;;;;;;5.47;2.80;;;13.30;99.90;;;;;;6237409;23;20016;-88
2022/08/08 03:30:44;;;;;;;7.72;3.13;;;13.30;99.90;;;;;;6236559;23;20026;-88
2022/08/08 03:33:18;;;;;;;6.90;3.33;;;13.30;99.90;;;;;;6237365;23;20024;-88
2022/08/08 03:35:47;;;;;;;;;;;13.20;99.90;;;;;;6212081;23;20020;-88
2022/08/08 03:38:13;;;;;;;6.15;2.63;;;13.20;99.90;;;;;;6125250;23;19921;-87
2022/08/08 03:40:39;;;;;;;5.10;2.53;;;13.10;99.90;;;;;;6144429;23;20022;-87
2022/08/08 03:43:09;;;;;;;6.68;3.25;;;13.20;99.90;;;;;;6146390;23;20084;-87
2022/08/08 03:45:35;;;;;;;6.95;3.05;;;13.20;99.90;;;;;;6143189;23;20532;-88
2022/08/08 03:48:08;;;;;;;5.32;2.88;;;13.30;99.90;;;;;;6144263;23;20053;-88
2022/08/08 03:50:39;;;;;;;6.43;2.95;;;13.20;99.90;;;;;;6144092;22;20025;-88
2022/08/08 03:53:10;;;;;;;5.00;2.63;;;13.20;99.90;;;;;;6146400;23;20009;-88
2022/08/08 03:55:41;;;;;;;4.70;2.65;;;13.20;99.90;;;;;;6143483;23;20026;-88
2022/08/08 03:58:08;;;;;;;7.97;2.50;;;13.20;99.90;;;;;;6144259;23;20009;-88
2022/08/08 04:00:34;;;;;;;4.78;2.70;;;13.20;99.90;;;;;;6144184;23;20516;-88
2022/08/08 04:03:06;;;;;;;5.32;2.70;;;13.30;99.90;;;;;;6144169;23;20071;-88
2022/08/08 04:05:34;;;;;;;4.88;2.83;;;13.30;99.90;;;;;;6144600;23;20379;-88
2022/08/08 04:08:01;;;;;;;6.97;2.95;;;13.30;99.90;;;;;;6146417;23;20014;-88
2022/08/08 04:10:29;;;;;;;5.22;2.92;;;13.30;99.90;;;;;;6119765;23;20029;-88
2022/08/08 04:12:54;;;;;;;7.00;3.08;;;13.40;99.90;;;;;;6143601;23;20333;-88
2022/08/08 04:15:21;;;;;;;5.10;2.40;;;13.30;99.90;;;;;;6146195;22;20017;-88
2022/08/08 04:17:46;;;;;;;6.82;3.30;;;13.50;99.90;;;;;;6143713;23;20477;-88
2022/08/08 04:20:12;;;;;;;6.10;2.90;;;13.60;99.90;;;;;;6143878;23;20071;-88
2022/08/08 04:22:38;;;;;;;6.28;3.03;;;13.60;99.90;;;;;;6143643;23;20028;-88
2022/08/08 04:25:06;;;;;;;7.80;3.70;;;14.00;99.90;;;;;;6144251;23;20075;-88
2022/08/08 04:27:32;;;;;;;6.93;2.80;;;13.80;99.90;;;;;;6145088;23;20018;-88
2022/08/08 04:29:58;;;;;;;6.30;3.30;;;13.70;99.90;;;;;;6145534;23;20555;-88
2022/08/08 04:32:23;;;;;;;7.13;3.22;;;13.70;99.90;;;;;;6144256;23;20348;-88
2022/08/08 04:34:49;;;;;;;7.63;3.63;;;13.70;99.90;;;;;;6145468;22;20045;-88
2022/08/08 04:37:14;;;;;;;5.95;3.53;;;13.70;99.90;;;;;;6144501;23;20442;-88
2022/08/08 04:39:40;;;;;;;7.75;3.70;;;13.70;99.90;;;;;;6118874;23;20022;-88
2022/08/08 04:42:06;;;;;;;5.35;3.45;;;13.80;99.90;;;;;;6144625;23;20029;-88
2022/08/08 04:44:32;;;;;;;6.68;3.90;;;13.80;99.90;;;;;;6145019;23;20052;-88
2022/08/08 04:46:58;;;;;;;10.60;3.95;;;13.80;99.90;;;;;;6146012;23;20338;-88
2022/08/08 04:49:24;;;;;;;10.20;3.78;;;13.80;99.90;;;;;;6146789;23;20510;-88
2022/08/08 04:51:50;;;;;;;8.65;4.82;;;13.90;99.90;;;;;;6146886;23;20018;-88
2022/08/08 04:54:15;;;;;;;7.15;3.75;;;13.90;99.90;;;;;;6145338;23;20018;-88
2022/08/08 04:56:41;;;;;;;7.40;4.35;;;13.90;99.90;;;;;;6146181;22;20071;-87
2022/08/08 04:59:06;;;;;;;8.05;4.38;;;13.90;99.90;;;;;;6147266;22;20041;-88
2022/08/08 05:01:32;;;;;;;6.97;4.07;;;13.90;99.90;;;;;;6146831;22;20017;-88
2022/08/08 05:03:58;;;;;;;8.82;4.05;;;14.00;99.90;;;;;;6147078;22;20041;-88
2022/08/08 05:06:23;;;;;;;7.72;3.85;;;14.00;99.90;;;;;;6120697;23;20392;-88
2022/08/08 05:08:49;;;;;;;8.00;3.88;;;14.00;99.90;;;;;;6120646;23;20018;-88
2022/08/08 05:11:15;;;;;;;6.38;3.55;;;14.00;99.90;;;;;;6120572;23;20097;-88
2022/08/08 05:13:40;;;;;;;5.78;3.58;;;14.00;99.90;;;;;;6144453;23;20021;-88
2022/08/08 05:16:06;;;;;;;6.20;4.38;;;14.10;99.90;;;;;;6145442;23;20017;-88
2022/08/08 05:18:32;;;;;;;7.10;3.80;;;14.10;99.90;;;;;;6144975;23;20018;-88
2022/08/08 05:21:02;;;;;;;7.72;3.90;;;14.10;99.90;;;;;;6145517;23;20022;-88
2022/08/08 05:23:27;;;;;;;6.18;3.92;;;14.10;99.90;;;;;;6145455;23;20059;-88
2022/08/08 05:25:53;;;;;;;6.28;4.03;;;14.20;99.90;;;;;;6119361;23;20457;-88
2022/08/08 05:28:19;;;;;;;8.55;4.10;;;14.20;99.90;;;;;;6145563;23;20025;-88
2022/08/08 05:30:44;;;;;;;7.78;4.82;;;14.20;99.90;;;;;;6169694;22;20101;-88
2022/08/08 05:33:10;;;;;;;7.25;4.57;;;14.20;99.90;;;;;;6147182;22;20365;-88
2022/08/08 05:35:38;;;;;;;5.90;4.60;;;14.30;99.90;;;;;;6120303;23;20025;-88
2022/08/08 05:38:05;;;;;;;8.68;4.43;;;14.30;99.90;;;;;;6145224;23;20014;-88
2022/08/08 05:40:32;;;;;;;8.13;4.22;;;14.30;99.90;;;;;;6144608;23;20013;-88
2022/08/08 05:43:04;;;;;;;9.35;4.15;;;14.30;99.90;;;;;;6145354;23;20341;-87
2022/08/08 05:45:36;;;;;;;10.35;4.90;;;14.20;99.90;;;;;;6145058;23;20091;-88
2022/08/08 05:48:04;;;;;;;7.72;4.38;;;14.30;99.90;;;;;;6146926;23;20083;-88
2022/08/08 05:50:32;;;;;;;5.97;4.30;;;14.30;99.90;;;;;;6120617;23;20036;-87
2022/08/08 05:52:58;;;;;;;9.52;4.93;;;14.30;99.90;;;;;;6144922;23;20024;-88
2022/08/08 05:55:24;;;;;;;8.32;4.72;;;14.30;99.90;;;;;;6146212;22;20390;-89
2022/08/08 05:57:57;;;;;;;7.65;4.30;;;14.30;99.90;;;;;;6144418;23;20040;-88
2022/08/08 06:00:27;;;;;;;9.18;4.40;;;14.30;99.90;;;;;;6144708;23;20021;-88
2022/08/08 06:03:09;;;;;;;9.68;4.53;;;14.30;99.90;;;;;;6119864;23;20472;-88
2022/08/08 06:05:59;;;;;;;8.43;4.78;;;14.40;99.90;;;;;;6146651;23;20018;-88
2022/08/08 06:08:27;;;;;;;8.57;4.57;;;14.40;99.90;;;;;;6144979;23;20102;-87
2022/08/08 06:10:54;;;;;;;6.88;3.90;;;14.40;99.90;;;;;;6145786;23;20451;-88
2022/08/08 06:13:20;;;;;;;8.27;4.70;;;14.40;99.90;;;;;;6146916;23;20025;-88
2022/08/08 06:15:48;;;;;;;8.30;4.32;;;14.50;99.90;;;;;;6119741;23;20017;-89
2022/08/08 06:18:15;;;;;;;11.07;4.40;;;14.50;99.90;;;;;;6146669;23;20372;-88
2022/08/08 06:20:42;;;;;;;7.88;4.40;;;14.60;99.90;;;;;;6119929;23;20024;-88
2022/08/08 06:23:08;;;;;;;8.05;3.88;;;14.60;99.90;;;;;;6144387;23;20580;-88
2022/08/08 06:25:41;;;;;;;7.47;4.22;;;14.80;99.90;;;;;;6145991;22;20067;-88
2022/08/08 06:28:22;;;;;;;9.27;4.77;;;14.60;99.90;;;;;;6144906;22;20025;-88
2022/08/08 06:30:54;;;;;;;7.50;3.92;;;14.60;99.90;;;;;;6144333;22;20023;-89
2022/08/08 06:33:24;;;;;;;8.00;3.83;;;14.70;99.90;;;;;;6146917;23;20044;-88
2022/08/08 06:35:51;;;;;;;8.18;4.45;;;14.70;99.90;;;;;;6143864;23;20489;-88
2022/08/08 06:38:20;;;;;;;8.20;3.60;;;14.80;99.90;;;;;;6145846;23;20441;-88
2022/08/08 06:40:50;;;;;;;8.05;4.10;;;14.90;99.90;;;;;;6144121;23;20021;-88
2022/08/08 06:43:19;;;;;;;9.98;4.10;;;15.00;99.90;;;;;;6144824;22;20025;-88
2022/08/08 06:45:45;;;;;;;7.15;3.63;;;15.10;99.90;;;;;;6146207;23;20068;-88
2022/08/08 06:48:11;;;;;;;9.60;4.22;;;15.40;99.90;;;;;;6119728;23;20041;-88
2022/08/08 06:50:38;;;;;;;5.68;3.03;;;15.50;99.90;;;;;;6146284;23;20025;-88
2022/08/08 06:53:06;;;;;;;7.10;3.80;;;15.70;99.90;;;;;;6119480;23;20041;-88
2022/08/08 06:55:34;;;;;;;12.32;4.60;;;15.90;99.90;;;;;;6146255;23;20072;-88
2022/08/08 06:57:59;;;;;;;6.25;3.40;;;16.10;99.90;;;;;;6146376;23;20097;-89
2022/08/08 07:00:26;;;;;;;10.98;4.38;;;16.20;99.90;;;;;;6146690;22;20386;-88
2022/08/08 07:02:53;;;;;;;9.45;4.00;;;16.50;99.90;;;;;;6144137;22;20024;-88
2022/08/08 07:05:24;;;;;;;8.55;3.88;;;16.50;99.90;;;;;;6144583;23;20071;-89
2022/08/08 07:08:14;;;;;;;4.05;2.40;;;16.60;99.90;;;;;;6143807;23;20028;-89
2022/08/08 07:10:47;;;;;;;7.65;3.47;;;16.70;99.90;;;;;;6146131;23;20060;-88
2022/08/08 07:13:16;;;;;;;9.13;4.20;;;16.70;99.90;;;;;;6144514;23;20097;-88
2022/08/08 07:16:08;;;;;;;12.85;4.22;;;16.70;99.90;;;;;;6145728;23;20341;-89
2022/08/08 07:18:49;;;;;;;7.65;3.53;;;16.80;99.90;;;;;;6146389;23;20025;-88
2022/08/08 07:21:17;;;;;;;7.85;4.78;;;16.80;99.90;;;;;;6145301;22;20053;-88
2022/08/08 07:24:09;;;;;;;7.30;3.55;;;16.90;99.90;;;;;;6146435;23;20009;-88
2022/08/08 07:26:38;;;;;;;11.63;3.50;;;17.10;99.90;;;;;;6152126;23;20021;-88
2022/08/08 07:29:04;;;;;;;9.15;3.10;;;17.30;99.90;;;;;;6144183;23;20017;-89
2022/08/08 07:31:33;;;;;;;12.05;2.40;;;17.50;99.90;;;;;;6147036;23;20037;-88
2022/08/08 07:34:00;;;;;;;7.63;2.22;;;17.70;99.90;;;;;;6146379;22;20013;-88
2022/08/08 07:36:26;;;;;;;8.48;2.40;;;17.90;99.90;;;;;;6144363;23;20109;-89
2022/08/08 07:38:52;;;;;;;8.10;2.58;;;18.10;99.90;;;;;;6143998;22;20014;-89
2022/08/08 07:41:18;;;;;;;6.78;2.40;;;18.30;99.90;;;;;;6146334;23;20095;-88
2022/08/08 07:43:44;;;;;;;7.43;2.65;;;18.40;99.90;;;;;;6119426;23;20083;-89
2022/08/08 07:46:10;;;;;;;6.72;2.22;;;18.50;99.90;;;;;;6146252;23;20414;-88
2022/08/08 07:48:36;;;;;;;8.02;2.28;;;18.50;99.90;;;;;;6144272;23;20053;-89
2022/08/08 07:51:02;;;;;;;8.68;1.90;;;18.60;99.90;;;;;;6143733;22;20021;-88
2022/08/08 07:53:44;;;;;;;9.07;1.88;;;18.50;99.90;;;;;;6144427;23;20167;-88
2022/08/08 07:56:12;;;;;;;9.55;1.70;;;18.60;99.90;;;;;;6145675;23;20021;-89
2022/08/08 07:58:41;;;;;;;6.30;2.10;;;18.70;99.90;;;;;;6144353;23;20014;-89
2022/08/08 08:01:10;;;;;;;7.65;1.90;;;19.00;99.90;;;;;;6146087;23;20022;-89
2022/08/08 08:03:40;;;;;;;5.78;1.55;;;19.20;99.90;;;;;;6145656;23;20063;-88
2022/08/08 08:06:10;;;;;;;7.15;1.40;;;19.40;99.90;;;;;;6145748;23;20083;-89
2022/08/08 08:08:40;;;;;;;2.30;1.15;;;19.50;99.90;;;;;;6144089;22;20014;-89
2022/08/08 08:11:18;;;;;;;6.22;1.60;;;19.70;99.90;;;;;;6144522;23;20076;-89
2022/08/08 08:13:55;;;;;;;8.13;1.67;;;19.80;99.90;;;;;;6145645;23;20014;-89
2022/08/08 08:16:24;;;;;;;5.97;2.15;;;19.90;99.90;;;;;;6120427;23;20028;-89
2022/08/08 08:18:54;;;;;;;4.50;2.00;;;19.90;99.90;;;;;;6120213;23;20017;-89
2022/08/08 08:21:21;;;;;;;5.65;1.75;;;19.90;99.90;;;;;;6145016;22;20036;-89
2022/08/08 08:23:46;;;;;;;4.35;1.70;;;19.90;99.90;;;;;;6120658;23;20092;-89
2022/08/08 08:26:12;;;;;;;6.75;1.65;;;19.90;99.90;;;;;;6145421;23;20068;-89
2022/08/08 08:28:39;;;;;;;7.10;1.92;;;20.00;99.90;;;;;;6145207;23;20454;-89
2022/08/08 08:31:06;;;;;;;5.40;1.65;;;19.80;99.90;;;;;;6120470;23;20026;-89
2022/08/08 08:33:32;;;;;;;4.25;1.60;;;19.70;99.90;;;;;;6145349;23;20341;-89
2022/08/08 08:35:59;;;;;;;4.20;1.40;;;19.50;99.90;;;;;;6146713;23;20025;-89
2022/08/08 08:38:25;;;;;;;8.70;1.63;;;19.50;99.90;;;;;;6146958;23;20028;-89
2022/08/08 08:40:51;;;;;;;4.10;1.52;;;19.50;99.90;;;;;;6144868;23;20021;-89
2022/08/08 08:43:18;;;;;;;5.97;1.20;;;19.50;99.90;;;;;;6147231;23;20014;-88
2022/08/08 08:45:45;;;;;;;4.65;1.30;;;19.60;99.90;;;;;;6146741;23;20505;-88
2022/08/08 08:48:12;;;;;;;4.45;1.38;;;19.60;99.90;;;;;;6144670;23;20135;-89
2022/08/08 08:50:40;;;;;;;7.53;1.30;;;19.70;99.90;;;;;;6144966;23;20021;-89
2022/08/08 08:53:08;;;;;;;4.07;1.00;;;19.90;99.90;;;;;;6145299;23;20057;-89
2022/08/08 08:55:38;;;;;;;5.78;1.23;;;20.10;99.90;;;;;;6145962;23;20517;-89
2022/08/08 08:58:06;;;;;;;4.72;1.35;;;20.30;99.90;;;;;;6145365;22;20263;-89
2022/08/08 09:00:34;;;;;;;2.88;1.20;;;20.50;99.90;;;;;;6145697;23;20055;-89
2022/08/08 09:03:04;;;;;;;5.90;1.33;;;20.70;99.90;;;;;;6145698;23;20480;-89
2022/08/08 09:05:34;;;;;;;3.72;1.20;;;20.80;99.90;;;;;;6146571;23;20020;-89
2022/08/08 09:08:02;;;;;;;5.35;0.90;;;20.90;99.90;;;;;;6145318;23;20029;-89
2022/08/08 09:10:31;;;;;;;4.18;1.10;;;20.90;99.90;;;;;;6147248;23;20165;-89
2022/08/08 09:12:59;;;;;;;4.35;1.75;;;21.00;99.90;;;;;;6145190;23;20021;-89
2022/08/08 09:15:25;;;;;;;3.50;1.00;;;21.10;99.90;;;;;;6144941;23;20357;-89
2022/08/08 09:17:51;;;;;;;6.35;1.23;;;21.40;99.90;;;;;;6144171;23;20102;-89
2022/08/08 09:20:18;;;;;;;4.18;1.10;;;21.70;99.90;;;;;;6145153;23;20449;-89
2022/08/08 09:22:44;;;;;;;3.00;0.93;;;22.00;99.90;;;;;;6119922;23;20128;-91
2022/08/08 09:25:10;;;;;;;5.55;1.25;;;22.20;99.90;;;;;;6146893;23;20075;-88
2022/08/08 09:27:36;;;;;;;4.30;1.00;;;22.60;99.90;;;;;;6144736;23;20041;-90
2022/08/08 09:30:07;;;;;;;4.57;1.00;;;22.80;99.90;;;;;;6145959;23;20060;-89
2022/08/08 09:32:47;;;;;;;2.85;0.73;;;23.00;99.90;;;;;;6150435;23;20543;-89
2022/08/08 09:35:19;;;;;;;6.28;1.00;;;23.00;98.80;;;;;;6122817;23;20013;-89
2022/08/08 09:37:44;;;;;;;3.55;0.90;;;23.10;99.90;;;;;;6147604;23;20018;-89
2022/08/08 09:40:13;;;;;;;3.33;0.80;;;23.10;99.90;;;;;;6149132;23;20058;-90
2022/08/08 09:42:44;;;;;;;5.13;0.95;;;23.00;99.90;;;;;;6147700;23;20014;-89
2022/08/08 09:45:18;;;;;;;5.22;0.88;;;22.90;99.90;;;;;;6147953;22;20067;-90
2022/08/08 09:47:44;;;;;;;1.65;0.70;;;22.70;99.90;;;;;;6144680;23;20013;-89
2022/08/08 09:50:12;;;;;;;2.97;0.80;;;22.50;99.90;;;;;;6120675;23;20322;-90
2022/08/08 09:52:49;;;;;;;3.13;0.88;;;22.40;99.90;;;;;;6144854;23;20014;-88
2022/08/08 09:55:17;;;;;;;3.78;0.90;;;22.20;99.90;;;;;;6144880;23;20067;-89
2022/08/08 09:57:48;;;;;;;3.38;0.80;;;22.10;99.90;;;;;;6144739;23;20680;-89
2022/08/08 10:00:17;;;;;;;3.30;0.75;;;21.90;99.90;;;;;;6147023;23;20024;-90
2022/08/08 10:02:46;;;;;;;1.52;0.60;;;22.00;99.90;;;;;;6144041;23;20067;-89
2022/08/08 10:05:17;;;;;;;1.92;0.70;;;22.00;99.90;;;;;;6144843;23;20024;-90
2022/08/08 10:07:50;;;;;;;3.55;0.70;;;21.90;99.90;;;;;;6144545;22;20018;-89
2022/08/08 10:10:28;;;;;;;3.38;0.80;;;21.90;99.90;;;;;;6145584;23;20021;-89
2022/08/08 10:12:54;;;;;;;3.50;0.82;;;21.90;99.90;;;;;;6144668;23;20017;-89
2022/08/08 10:15:21;;;;;;;2.35;0.73;;;21.90;99.90;;;;;;6146304;23;20021;-89
2022/08/08 10:17:48;;;;;;;3.42;0.80;;;21.80;99.90;;;;;;6120135;23;20049;-90
2022/08/08 10:20:14;;;;;;;2.65;0.73;;;21.80;99.90;;;;;;6145164;23;20024;-89
2022/08/08 10:22:57;;;;;;;2.35;0.77;;;21.80;99.90;;;;;;6144030;22;20025;-89
2022/08/08 10:25:23;;;;;;;3.00;0.80;;;22.00;99.90;;;;;;6147112;23;20018;-88
2022/08/08 10:27:51;;;;;;;3.70;0.82;;;22.00;99.90;;;;;;6145470;23;20361;-90
2022/08/08 10:30:18;;;;;;;3.17;0.90;;;22.10;99.90;;;;;;6144586;23;20018;-90
2022/08/08 10:32:50;;;;;;;2.97;0.63;;;22.20;99.90;;;;;;6145758;23;20445;-89
2022/08/08 10:35:18;;;;;;;3.67;1.02;;;22.20;99.90;;;;;;6120564;23;20020;-89
2022/08/08 10:38:14;;;;;;;5.15;0.90;;;22.30;99.90;;;;;;6144377;23;20029;-89
2022/08/08 10:40:44;;;;;;;1.88;0.70;;;22.40;99.90;;;;;;6144874;23;20025;-89
2022/08/08 10:43:10;;;;;;;2.78;0.90;;;22.40;99.90;;;;;;6144799;23;20043;-89
2022/08/08 10:45:44;;;;;;;2.78;0.75;;;22.40;99.90;;;;;;6143956;23;20067;-90
2022/08/08 10:48:11;;;;;;;4.27;0.80;;;22.40;99.90;;;;;;6144687;23;20083;-90
2022/08/08 10:50:38;;;;;;;2.17;0.70;;;22.50;99.90;;;;;;6146421;23;20545;-89
2022/08/08 10:53:06;;;;;;;2.42;0.82;;;22.60;99.90;;;;;;6146800;23;20318;-89
2022/08/08 10:55:32;;;;;;;3.53;0.90;;;22.70;99.90;;;;;;6145935;23;20071;-90
2022/08/08 10:58:04;;;;;;;3.40;1.00;;;22.80;99.50;;;;;;6144926;23;20021;-90
2022/08/08 11:00:30;;;;;;;7.53;0.80;;;22.80;99.90;;;;;;6146135;23;20022;-89
2022/08/08 11:03:08;;;;;;;3.90;1.00;;;22.90;99.90;;;;;;6119939;23;20147;-89
2022/08/08 11:05:47;;;;;;;3.40;1.15;;;22.90;99.90;;;;;;6144170;23;20017;-90
2022/08/08 11:08:27;;;;;;;4.90;0.95;;;23.00;99.90;;;;;;6146426;22;20014;-89
2022/08/08 11:11:08;;;;;;;5.20;1.05;;;23.00;99.90;;;;;;6119690;23;20036;-89
2022/08/08 11:13:44;;;;;;;6.65;0.90;;;23.00;99.90;;;;;;6145162;23;20567;-90
2022/08/08 11:16:21;;;;;;;4.07;1.13;;;22.80;99.90;;;;;;6120194;23;20018;-90
2022/08/08 11:18:48;;;;;;;5.25;1.00;;;22.80;99.90;;;;;;6145946;23;20014;-89
2022/08/08 11:21:15;;;;;;;4.97;0.85;;;22.70;99.90;;;;;;6144527;23;20017;-90
2022/08/08 11:23:42;;;;;;;4.20;0.90;;;22.60;99.90;;;;;;6144196;23;20056;-89
2022/08/08 11:26:12;;;;;;;4.88;0.80;;;22.40;99.90;;;;;;6146229;23;20010;-89
2022/08/08 11:28:39;;;;;;;2.47;0.90;;;22.40;99.90;;;;;;6119488;23;20103;-89
2022/08/08 11:31:05;;;;;;;3.45;0.85;;;22.30;99.90;;;;;;6144321;23;20456;-89
2022/08/08 11:33:36;;;;;;;4.47;0.80;;;22.30;99.90;;;;;;6144884;23;20095;-89
2022/08/08 11:36:01;;;;;;;4.93;0.80;;;22.30;99.90;;;;;;6119926;23;20079;-90
2022/08/08 11:38:29;;;;;;;4.25;1.02;;;22.20;99.90;;;;;;6146475;23;20369;-89
2022/08/08 11:40:55;;;;;;;5.60;0.90;;;22.20;99.90;;;;;;6146201;23;20071;-89
2022/08/08 11:43:27;;;;;;;1.17;0.60;;;22.20;99.90;;;;;;6144160;23;20508;-89
2022/08/08 11:45:53;;;;;;;4.35;1.00;;;22.10;99.90;;;;;;6146032;23;20906;-90
2022/08/08 11:48:19;;;;;;;2.13;0.70;;;22.10;99.90;;;;;;6146089;22;20030;-89
2022/08/08 11:50:45;;;;;;;3.88;0.77;;;22.00;99.90;;;;;;6143544;23;20024;-90
2022/08/08 11:53:12;;;;;;;4.38;0.88;;;22.00;99.90;;;;;;6145304;23;20058;-90
2022/08/08 11:55:49;;;;;;;4.85;0.88;;;22.00;99.90;;;;;;6145310;23;20480;-89
2022/08/08 11:58:15;;;;;;;4.88;0.90;;;21.90;99.90;;;;;;6144387;23;20453;-88
2022/08/08 12:00:46;;;;;;;2.60;0.80;;;21.80;99.90;;;;;;6145955;23;20022;-89
2022/08/08 12:03:24;;;;;;;3.15;0.75;;;21.80;99.90;;;;;;6144339;23;20017;-90
2022/08/08 12:05:51;;;;;;;2.60;1.05;;;21.80;99.90;;;;;;6145160;23;20518;-90
2022/08/08 12:08:30;;;;;;;1.85;0.70;;;21.80;99.90;;;;;;6144500;23;20450;-90
2022/08/08 12:11:02;;;;;;;4.07;0.85;;;21.80;99.90;;;;;;6144094;23;20434;-89
2022/08/08 12:13:29;;;;;;;1.65;0.70;;;21.80;99.90;;;;;;6145959;22;20024;-89
2022/08/08 12:16:09;;;;;;;6.82;1.10;;;21.80;99.90;;;;;;6143823;23;20056;-89
2022/08/08 12:18:47;;;;;;;4.20;1.00;;;21.80;99.90;;;;;;6143641;23;20067;-89
2022/08/08 12:21:24;;;;;;;4.15;0.95;;;21.80;99.90;;;;;;6119817;23;20018;-89
2022/08/08 12:24:05;;;;;;;2.40;0.90;;;21.90;99.90;;;;;;6145325;23;20464;-89
2022/08/08 12:26:40;;;;;;;2.65;0.75;;;22.00;99.90;;;;;;6144956;23;20013;-89
2022/08/08 12:29:32;;;;;;;2.60;0.68;;;22.00;99.90;;;;;;6146142;22;20345;-89
2022/08/08 12:32:11;;;;;;;4.47;1.10;;;22.10;99.90;;;;;;6144206;23;20068;-89
2022/08/08 12:34:39;;;;;;;3.10;1.00;;;22.10;99.90;;;;;;6145454;23;20022;-89
2022/08/08 12:37:09;;;;;;;4.95;0.70;;;22.10;99.90;;;;;;6143837;22;20214;-89
2022/08/08 12:39:35;;;;;;;5.32;1.35;;;22.00;99.90;;;;;;6143543;23;20028;-90
2022/08/08 12:42:00;;;;;;;8.93;1.00;;;22.00;99.90;;;;;;6143442;22;20076;-89
2022/08/08 12:44:28;;;;;;;4.65;0.93;;;22.00;99.90;;;;;;6143995;23;20025;-89
2022/08/08 12:46:55;;;;;;;4.15;1.10;;;22.00;99.90;;;;;;6143651;23;20017;-89
2022/08/08 12:49:26;;;;;;;8.05;1.20;;;22.10;99.90;;;;;;6144376;23;20717;-89
2022/08/08 12:51:52;;;;;;;3.40;1.02;;;22.10;99.90;;;;;;6118817;23;20460;-90
2022/08/08 12:54:23;;;;;;;4.32;1.05;;;22.20;99.90;;;;;;6143869;23;20469;-89
2022/08/08 12:56:49;;;;;;;3.72;1.00;;;22.20;99.90;;;;;;6142938;23;20026;-89
2022/08/08 12:59:23;;;;;;;3.55;0.90;;;22.30;99.90;;;;;;6119142;23;20066;-90
2022/08/08 13:01:50;;;;;;;3.80;1.02;;;22.30;99.90;;;;;;6119573;23;20453;-89
2022/08/08 13:04:21;;;;;;;7.32;1.05;;;22.30;99.90;;;;;;6146771;22;20051;-89
2022/08/08 13:07:06;;;;;;;9.00;1.63;;;22.40;99.90;;;;;;6144841;22;20450;-89
2022/08/08 13:09:38;;;;;;;8.52;1.13;;;22.40;99.90;;;;;;6144376;22;20443;-89
2022/08/08 13:12:19;;;;;;;5.38;1.10;;;22.40;99.90;;;;;;6145354;23;20045;-89
2022/08/08 13:14:47;;;;;;;3.78;0.90;;;22.50;99.90;;;;;;6144986;23;20441;-89
2022/08/08 13:17:15;;;;;;;2.67;0.75;;;22.50;99.90;;;;;;6147268;23;20018;-89
2022/08/08 13:19:42;;;;;;;4.03;0.88;;;22.60;99.90;;;;;;6144720;23;20021;-89
2022/08/08 13:22:08;;;;;;;3.20;0.90;;;22.70;99.90;;;;;;6146782;23;20018;-89
2022/08/08 13:24:39;;;;;;;3.20;1.10;;;22.70;99.90;;;;;;6146087;23;20014;-90
2022/08/08 13:27:10;;;;;;;5.70;1.02;;;22.70;99.90;;;;;;6145191;22;20104;-89